Flight Track Log - Related Links

Times and Time Zones

All times are in EDT time to prevent confusion due to time zone crossing. See the N610LJ flight status page for this flight to view local times or setup timezone preferences in your user account.

Time Position Orientation Groundspeed Altitude Reporting Facility
EDT Latitude Longitude Course Direction KTS MPH feet Rate Location/Type
Fri 03:59:49 PM 44.4167 -79.5667 152° Southeast 260 299 3,100  Level Toronto Center
Fri 04:00:49 PM 44.3500 -79.5167 152° Southeast 270 311 4,100 2,420 Climbing Toronto Center
Fri 04:01:48 PM 44.2833 -79.4667 144° Southeast 280 322 7,900 3,900 Climbing Toronto Center
Fri 04:02:49 PM 44.2167 -79.4000 139° Southeast 300 345 11,900 3,471 Climbing Toronto Center
Fri 04:03:49 PM 44.1333 -79.3000 149° Southeast 350 403 14,900 3,025 Climbing Toronto Center
Fri 04:04:48 PM 44.0333 -79.2167 174° South 410 472 17,900 3,200 Climbing Toronto Center
Fri 04:05:49 PM 43.9167 -79.2000 168° South 430 495 21,300 3,124 Climbing Toronto Center
Fri 04:06:49 PM 43.8000 -79.1667 175° South 440 506 24,200 2,723 Climbing Toronto Center
Fri 04:07:48 PM 43.6667 -79.1500 174° South 460 529 26,700 2,420 Climbing Toronto Center
Fri 04:08:48 PM 43.5500 -79.1333 171° South 470 541 29,000 2,231 Climbing Toronto Center
Fri 04:09:49 PM 43.4000 -79.1000 175° South 480 552 31,200 2,050 Climbing Toronto Center
Fri 04:10:48 PM 43.2667 -79.0833 175° South 490 564 33,100 1,966 Climbing Toronto Center
Fri 04:11:48 PM 43.1333 -79.0667 170° South 490 564 35,100 1,550 Climbing Toronto Center
Fri 04:12:48 PM 43.0000 -79.0333 182° South 480 552 36,200 864 Climbing Toronto Center
Fri 04:14:00 PM 42.8500 -79.0397 174° South 485 558 37,000 773 Climbing Cleveland Center
Fri 04:15:00 PM 42.7164 -79.0206 174° South 490 564 37,900 950 Climbing Cleveland Center
Fri 04:16:00 PM 42.5806 -79.0014 174° South 485 558 38,900 800 Climbing Cleveland Center
Fri 04:17:00 PM 42.4617 -78.9844 173° South 479 551 39,500 550 Climbing Cleveland Center
Fri 04:18:00 PM 42.3133 -78.9603 175° South 485 558 40,000 250 Climbing Cleveland Center
Fri 04:19:00 PM 42.1817 -78.9439 173° South 485 558 40,000  Level Cleveland Center
Fri 04:20:00 PM 42.0481 -78.9222 173° South 485 558 40,000  Level Cleveland Center
Fri 04:21:00 PM 41.9103 -78.9008 174° South 485 558 40,000  Level Cleveland Center
Fri 04:22:00 PM 41.7764 -78.8819 174° South 485 558 40,000  Level Cleveland Center
Fri 04:23:00 PM 41.6428 -78.8633 174° South 485 558 40,000  Level Cleveland Center
Fri 04:24:00 PM 41.5217 -78.8469 174° South 485 558 40,000  Level Cleveland Center
Fri 04:25:00 PM 41.3733 -78.8261 174° South 485 558 40,000  Level Cleveland Center
Fri 04:26:00 PM 41.2564 -78.8100 173° South 479 551 40,000  Level Cleveland Center
Fri 04:27:00 PM 41.1247 -78.7886 174° South 484 557 40,000  Level Cleveland Center
Fri 04:28:00 PM 40.9950 -78.7703 174° South 484 557 40,000  Level Cleveland Center
Fri 04:29:00 PM 40.8531 -78.7494 175° South 479 551 40,000  Level Cleveland Center
Fri 04:30:00 PM 40.7150 -78.7342 173° South 485 558 40,000  Level Cleveland Center
Fri 04:31:00 PM 40.5856 -78.7131 175° South 485 558 40,000  Level Cleveland Center
Fri 04:32:00 PM 40.4539 -78.6978 173° South 485 558 40,000  Level Cleveland Center
Fri 04:33:00 PM 40.3203 -78.6769 174° South 485 558 40,000  Level Cleveland Center
Fri 04:36:12 PM 39.8944 -78.6203 174° South 479 551 40,000  Level Washington Center
Fri 04:37:13 PM 39.7533 -78.6008 174° South 491 565 40,000  Level Washington Center
Fri 04:38:13 PM 39.6183 -78.5817 174° South 496 571 40,000  Level Washington Center
Fri 04:39:14 PM 39.4875 -78.5628 175° South 496 571 40,000  Level Washington Center
Fri 04:40:12 PM 39.3503 -78.5467 174° South 491 565 40,000  Level Washington Center
Fri 04:41:13 PM 39.2194 -78.5278 173° South 491 565 40,000  Level Washington Center
Fri 04:42:14 PM 39.0969 -78.5097 175° South 491 565 40,000  Level Washington Center
Fri 04:43:14 PM 38.9658 -78.4936 174° South 491 565 40,000  Level Washington Center
Fri 04:44:13 PM 38.8289 -78.4750 174° South 491 565 40,000  Level Washington Center
Fri 04:45:13 PM 38.6939 -78.4564 174° South 496 571 40,000  Level Washington Center
Fri 04:46:14 PM 38.5608 -78.4381 174° South 496 571 40,000  Level Washington Center
Fri 04:47:12 PM 38.4256 -78.4194 174° South 496 571 40,000  Level Washington Center
Fri 04:48:13 PM 38.2925 -78.4011 175° South 496 571 40,000  Level Washington Center
Fri 04:49:13 PM 38.1594 -78.3858 174° South 496 571 40,000 -50 Level Washington Center
Fri 04:50:14 PM 38.0286 -78.3675 175° South 491 565 39,900 -605 Descending Washington Center
Fri 04:51:12 PM 37.8933 -78.3522 173° South 460 529 38,800 -1,613 Descending Washington Center
Fri 04:52:13 PM 37.7625 -78.3317 175° South 460 529 36,700 -1,721 Descending Washington Center
Fri 04:53:14 PM 37.6272 -78.3161 175° South 478 550 35,300 -1,261 Descending Washington Center
Fri 04:54:12 PM 37.4983 -78.3011 173° South 478 550 34,200 -655 Descending Washington Center
Fri 04:55:13 PM 37.3653 -78.2806 175° South 478 550 34,000 -347 Descending Washington Center
Fri 04:56:13 PM 37.2444 -78.2661 175° South 478 550 33,500 -1,686 Descending Washington Center
Fri 04:57:14 PM 37.1133 -78.2511 174° South 478 550 30,600 -1,966 Descending Washington Center
Fri 04:58:12 PM 36.9886 -78.2339 175° South 472 543 29,600 -814 Descending Washington Center
Fri 04:59:12 PM 36.8575 -78.2189 175° South 472 543 29,000 -397 Descending Washington Center
Fri 05:00:13 PM 36.7306 -78.2042 176° South 466 536 28,800 -446 Descending Washington Center
Fri 05:01:13 PM 36.6078 -78.1922 173° South 457 526 28,100 -403 Descending Washington Center
Fri 05:02:12 PM 36.4683 -78.1722 175° South 456 525 28,000 -50 Descending Washington Center
Fri 05:03:12 PM 36.3394 -78.1575 173° South 462 532 28,000  Level Washington Center
Fri 05:04:13 PM 36.2103 -78.1381 175° South 462 532 28,000 -492 Level Washington Center
Fri 05:05:14 PM 36.0814 -78.1236 174° South 462 532 27,000 -1,377 Descending Washington Center
Fri 05:06:15 PM 35.9564 -78.1067 174° South 455 524 25,200 -1,412 Descending Washington Center
Fri 05:07:13 PM 35.8317 -78.0900 175° South 460 529 24,200 -1,322 Descending Washington Center
Fri 05:08:13 PM 35.7089 -78.0758 174° South 454 522 22,600 -1,488 Descending Washington Center
Fri 05:09:14 PM 35.6006 -78.0622 175° South 448 516 21,200 -1,563 Descending Washington Center
Fri 05:10:12 PM 35.4778 -78.0483 173° South 442 509 19,500 -1,678 Descending Washington Center
Fri 05:11:12 PM 35.3614 -78.0319 175° South 442 509 17,900 -1,587 Descending Washington Center
Fri 05:12:13 PM 35.2447 -78.0183 175° South 429 494 16,300 -1,636 Descending Washington Center
Fri 05:13:13 PM 35.1239 -78.0044 174° South 416 479 14,600 -1,743 Descending Washington Center
Fri 05:15:12 PM 34.9200 -77.9781 175° South 375 432 11,100 -1,267 Descending Washington Center
Fri 05:16:13 PM 34.8283 -77.9678 177° South 354 407 10,800 -843 Descending Washington Center
Fri 05:17:13 PM 34.7492 -77.9631 174° South 335 386 9,400 -1,339 Descending Washington Center
Fri 05:18:14 PM 34.6703 -77.9531 180° South 305 351 8,100 -706 Descending Washington Center
Fri 05:19:12 PM 34.5972 -77.9536 187° South 282 325 8,000 -559 Descending Washington Center
Fri 05:20:12 PM 34.5239 -77.9642 195° South 270 311 7,000 -1,672 Descending Washington Center
Fri 05:21:14 PM 34.4544 -77.9872 200° South 265 305 4,600 -1,850 Descending Washington Center
Fri 05:22:12 PM 34.3914 -78.0156 200° South 259 298 3,300 -1,345 Descending Washington Center

Login

Don't have an account? Register now (free) for customized features, flight alerts, and more!